Airfield :
LOGIN :

Register | Disclaimer

   EN    FR    IT 

 










Legend :    VFR   Marginal VFR   IFR   Intensive IFR   Very Intensive IFR
Visi :
Ceiling :
>= 8 km
>= 3000ft
5 to 8 km
1000 to 3000 ft
1500m to 5 km
500 to 1000 ft
800 to 1500m
200 to 500 ft
< 800m
< 200 ft
Symbols :   Thunderstorms  Fog  Heavy snow  Heavy precipitations  Wind > 20 kt
SIGMETs :     Misc.  Thunderstorms  Icing  Turbulence  Mountain Waves  Volcanic Ashes







- Airport Elevation : 821 ft
- IATA code : LYS
- Download approach charts


LFLL - Lyon St Exupéry / Satolas

CURRENT METAR :
  • 232200Z 29004KT CAVOK 11/02 Q1025 NOSIG

EXPIRED METARs :
  • 232130Z 24003KT CAVOK 12/02 Q1025 NOSIG
  • 232100Z 34005KT CAVOK 13/02 Q1025 NOSIG
  • 232030Z 35007KT CAVOK 13/02 Q1025 NOSIG
  • 232000Z 35006KT CAVOK 14/02 Q1025 NOSIG
  • 231930Z 34005KT CAVOK 14/03 Q1025 NOSIG

TAF TAF LFLL
Valid from the 23 at 18:00 until the 25 at 00:00 UTC


231700Z 2318/2424 35012KT CAVOK
BECMG 2400/2402 VRB02KT
PROB40
TEMPO 2403/2409 3000 BR
PROB30
TEMPO 2405/2409 0800 FG OVC002
BECMG 2410/2412 33014KT
No reported NOTAMs for that airfield.



MET'MAP, your aeronautical weather chart ! - Copyright ORBIFLY December 2007 - Disclaimer

ORBIFLY MET'MAP TEAM :

Programming & Development : Alexandra Zaïnal
Concept & Development : Baudouin d'Aumeries
Co-Development & Prog : Marc-Olivier Méhu
Technical & hardware support : Manuel Goepfert

Contact : metmap@orbifly.com




SOURCES & CREDITS :

   NOAA